New Orleans, LA (70112)

3:18 PM CDT on March 24, 2017 (GMT -0500)
Downtown CBD New Orleans | | Change Station
Active Advisory: Wind Advisory

Elev 28 ft 29.94 °N, 90.07 °W | Updated 13 minutes ago

Overcast
Overcast
77.2 °F
Feels Like 79 °F
N
9.2
Wind Variable Wind from South
Gusts 9.8 mph

Today
High -- | Low -- °F
--% Chance of Precip.
Yesterday
High -- | Low -- °F
Precip. -- in
Pressure 30.16 in
Visibility 10.0 miles
Clouds Few 2700 ft
Mostly Cloudy 3600 ft
Overcast 6500 ft
Heat Index 79 °F
Dew Point 61 °F
Humidity 57%
Rainfall 0.00 in
Snow Depth Not available.
6:58 AM 7:14 PM
Waning Crescent, 13% visible
METAR KNEW 241953Z AUTO 14015G23KT 10SM FEW027 BKN036 OVC065 25/19 A3018 RMK AO2 SLP213 T02500189
Pressure 30.16 in
Visibility 10.0 miles
Clouds Few 2700 ft
Mostly Cloudy 3600 ft
Overcast 6500 ft
Heat Index 79 °F
Dew Point 61 °F
Humidity 57%
Rainfall 0.00 in
Snow Depth Not available.
6:58 AM 7:14 PM
Waning Crescent, 13% visible
METAR KNEW 241953Z AUTO 14015G23KT 10SM FEW027 BKN036 OVC065 25/19 A3018 RMK AO2 SLP213 T02500189

Get Your Daily Forecast Email!

Thanks for signing up!

Be on the lookout for a verification email in your inbox.

You'll start receiving severe weather alerts in your inbox..

×

10-Day Weather Forecast

Almanac

Astronomy

Mar. 24, 2017 Rise Set
Actual Time
Civil Twilight
Nautical Twilight
Astronomical Twilight
Moon
Length of Visible Light
Length of Day
Tomorrow will be .
, % of the Moon is Illuminated

Today's Extremes

State Highs State Lows

Community

WunderPhotos

Upload Photos

1,962,540 photos uploaded!

WunderBlog® & News

Nearby

Air Quality

  Air Quality AQ Index Pollutant
Not available.

Snow Depth

Station Depth Elevation

Earthquake Activity

City Distance Mag. Time & Date
Minimum magnitude displayed is 2.5.

Earthquake Activity

City Distance Mag. Time & Date
Minimum magnitude displayed is 2.5.

Coastal Water Temperatures

Place Temperature

Stations

Nearby Weather Stations

Station Location Temp. Windchill Dew Point Humidity Wind Precip. Elev Updated Type
                   

Watches & Warnings

Wind Advisory
Issued: 10:41 AM CDT Mar. 24, 2017 – National Weather Service

... Wind Advisory remains in effect until 7 PM CDT this evening...

* timing... through 7 PM

* winds... 25 to 30 mph with gusts up to 40 mph

* impacts... difficult driving conditions for high profile
vehicles especially on east-west roadways and on bridges and
overpasses. Loose lawn objects along with trash cans will be
blown around.

Precautionary/preparedness actions...

A Wind Advisory means that winds of 26 to 39 mph are expected.
Winds this strong can make driving difficult... especially for
high profile vehicles. Use extra caution.